sensor_id;sensor_type;location;lat;lon;timestamp;temperature;humidity
6520;DHT22;3293;51.690;5.982;2023-07-29T00:00:02;18.20;99.90
6520;DHT22;3293;51.690;5.982;2023-07-29T00:05:04;18.10;99.90
6520;DHT22;3293;51.690;5.982;2023-07-29T00:10:05;18.10;99.90
6520;DHT22;3293;51.690;5.982;2023-07-29T00:15:07;18.10;99.90
6520;DHT22;3293;51.690;5.982;2023-07-29T00:20:08;18.10;99.90
6520;DHT22;3293;51.690;5.982;2023-07-29T00:25:08;18.00;99.90
6520;DHT22;3293;51.690;5.982;2023-07-29T00:30:11;18.00;99.90
6520;DHT22;3293;51.690;5.982;2023-07-29T00:35:11;17.80;99.90
6520;DHT22;3293;51.690;5.982;2023-07-29T00:40:21;17.80;99.90
6520;DHT22;3293;51.690;5.982;2023-07-29T00:45:23;17.70;99.90
6520;DHT22;3293;51.690;5.982;2023-07-29T00:50:24;17.80;99.90
6520;DHT22;3293;51.690;5.982;2023-07-29T00:55:28;17.90;99.90
6520;DHT22;3293;51.690;5.982;2023-07-29T01:00:28;17.90;99.90
6520;DHT22;3293;51.690;5.982;2023-07-29T01:05:34;17.90;99.90
6520;DHT22;3293;51.690;5.982;2023-07-29T01:11:07;18.00;99.90
6520;DHT22;3293;51.690;5.982;2023-07-29T01:16:17;17.90;99.90
6520;DHT22;3293;51.690;5.982;2023-07-29T01:21:18;17.90;99.90
6520;DHT22;3293;51.690;5.982;2023-07-29T01:26:19;17.90;99.90
6520;DHT22;3293;51.690;5.982;2023-07-29T01:31:34;17.90;99.90
6520;DHT22;3293;51.690;5.982;2023-07-29T01:36:37;17.90;99.90
6520;DHT22;3293;51.690;5.982;2023-07-29T01:41:41;17.80;99.90
6520;DHT22;3293;51.690;5.982;2023-07-29T01:46:44;17.80;99.90
6520;DHT22;3293;51.690;5.982;2023-07-29T01:51:44;17.80;99.90
6520;DHT22;3293;51.690;5.982;2023-07-29T01:56:44;17.90;99.90
6520;DHT22;3293;51.690;5.982;2023-07-29T02:01:44;17.90;99.90
6520;DHT22;3293;51.690;5.982;2023-07-29T02:06:46;17.90;99.90
6520;DHT22;3293;51.690;5.982;2023-07-29T02:11:47;17.90;99.90
6520;DHT22;3293;51.690;5.982;2023-07-29T02:16:47;17.90;99.90
6520;DHT22;3293;51.690;5.982;2023-07-29T02:21:47;17.80;99.90
6520;DHT22;3293;51.690;5.982;2023-07-29T02:26:47;17.80;99.90
6520;DHT22;3293;51.690;5.982;2023-07-29T02:31:47;17.80;99.90
6520;DHT22;3293;51.690;5.982;2023-07-29T02:36:47;17.90;99.90
6520;DHT22;3293;51.690;5.982;2023-07-29T02:41:47;18.00;99.90
6520;DHT22;3293;51.690;5.982;2023-07-29T02:46:47;18.10;99.90
6520;DHT22;3293;51.690;5.982;2023-07-29T02:51:47;18.10;99.90
6520;DHT22;3293;51.690;5.982;2023-07-29T02:56:47;18.10;99.90
6520;DHT22;3293;51.690;5.982;2023-07-29T03:01:47;18.10;99.90
6520;DHT22;3293;51.690;5.982;2023-07-29T03:06:47;18.10;99.90
6520;DHT22;3293;51.690;5.982;2023-07-29T03:11:48;18.00;99.90
6520;DHT22;3293;51.690;5.982;2023-07-29T03:16:47;18.00;99.90
6520;DHT22;3293;51.690;5.982;2023-07-29T03:21:47;17.80;99.90
6520;DHT22;3293;51.690;5.982;2023-07-29T03:26:47;17.70;99.90
6520;DHT22;3293;51.690;5.982;2023-07-29T03:31:47;17.70;99.90
6520;DHT22;3293;51.690;5.982;2023-07-29T03:36:48;17.50;99.90
6520;DHT22;3293;51.690;5.982;2023-07-29T03:41:48;17.40;99.90
6520;DHT22;3293;51.690;5.982;2023-07-29T03:46:48;17.40;99.90
6520;DHT22;3293;51.690;5.982;2023-07-29T03:51:48;17.30;99.90
6520;DHT22;3293;51.690;5.982;2023-07-29T03:56:48;17.20;99.90
6520;DHT22;3293;51.690;5.982;2023-07-29T04:01:48;17.10;99.90
6520;DHT22;3293;51.690;5.982;2023-07-29T04:06:48;17.10;99.90
6520;DHT22;3293;51.690;5.982;2023-07-29T04:11:48;17.10;99.90
6520;DHT22;3293;51.690;5.982;2023-07-29T04:16:48;17.10;99.90
6520;DHT22;3293;51.690;5.982;2023-07-29T04:21:49;17.10;99.90
6520;DHT22;3293;51.690;5.982;2023-07-29T04:26:50;17.10;99.90
6520;DHT22;3293;51.690;5.982;2023-07-29T04:31:50;17.10;99.90
6520;DHT22;3293;51.690;5.982;2023-07-29T04:36:50;17.00;99.90
6520;DHT22;3293;51.690;5.982;2023-07-29T04:41:50;17.00;99.90
6520;DHT22;3293;51.690;5.982;2023-07-29T04:46:50;17.00;99.90
6520;DHT22;3293;51.690;5.982;2023-07-29T04:51:50;17.00;99.90
6520;DHT22;3293;51.690;5.982;2023-07-29T04:56:50;17.10;99.90
6520;DHT22;3293;51.690;5.982;2023-07-29T05:01:50;17.10;99.90
6520;DHT22;3293;51.690;5.982;2023-07-29T05:06:50;17.20;99.90
6520;DHT22;3293;51.690;5.982;2023-07-29T05:11:50;17.20;99.90
6520;DHT22;3293;51.690;5.982;2023-07-29T05:16:50;17.30;99.90
6520;DHT22;3293;51.690;5.982;2023-07-29T05:21:50;17.50;99.90
6520;DHT22;3293;51.690;5.982;2023-07-29T05:26:50;17.60;99.90
6520;DHT22;3293;51.690;5.982;2023-07-29T05:31:50;17.90;99.90
6520;DHT22;3293;51.690;5.982;2023-07-29T05:36:50;18.20;99.90
6520;DHT22;3293;51.690;5.982;2023-07-29T05:41:50;18.00;99.90
6520;DHT22;3293;51.690;5.982;2023-07-29T05:46:50;17.90;99.90
6520;DHT22;3293;51.690;5.982;2023-07-29T05:51:49;17.70;99.90
6520;DHT22;3293;51.690;5.982;2023-07-29T05:56:51;17.80;99.90
6520;DHT22;3293;51.690;5.982;2023-07-29T06:01:51;17.90;99.90
6520;DHT22;3293;51.690;5.982;2023-07-29T06:06:51;17.90;99.90
6520;DHT22;3293;51.690;5.982;2023-07-29T06:11:51;18.00;99.90
6520;DHT22;3293;51.690;5.982;2023-07-29T06:16:51;18.20;99.90
6520;DHT22;3293;51.690;5.982;2023-07-29T06:21:51;18.70;99.90
6520;DHT22;3293;51.690;5.982;2023-07-29T06:26:54;19.50;99.90
6520;DHT22;3293;51.690;5.982;2023-07-29T06:31:54;21.20;99.90
6520;DHT22;3293;51.690;5.982;2023-07-29T06:36:54;22.40;99.90
6520;DHT22;3293;51.690;5.982;2023-07-29T06:41:54;23.60;97.80
6520;DHT22;3293;51.690;5.982;2023-07-29T06:46:54;25.40;89.30
6520;DHT22;3293;51.690;5.982;2023-07-29T06:51:55;26.10;75.30
6520;DHT22;3293;51.690;5.982;2023-07-29T06:56:55;25.00;81.20
6520;DHT22;3293;51.690;5.982;2023-07-29T07:01:55;23.60;90.40
6520;DHT22;3293;51.690;5.982;2023-07-29T07:06:55;23.40;91.80
6520;DHT22;3293;51.690;5.982;2023-07-29T07:11:55;24.10;89.40
6520;DHT22;3293;51.690;5.982;2023-07-29T07:16:55;23.80;91.00
6520;DHT22;3293;51.690;5.982;2023-07-29T07:21:55;24.20;87.20
6520;DHT22;3293;51.690;5.982;2023-07-29T07:26:55;23.40;91.10
6520;DHT22;3293;51.690;5.982;2023-07-29T07:31:56;24.10;89.50
6520;DHT22;3293;51.690;5.982;2023-07-29T07:36:57;25.20;83.50
6520;DHT22;3293;51.690;5.982;2023-07-29T07:41:57;25.80;72.30
6520;DHT22;3293;51.690;5.982;2023-07-29T07:46:57;25.40;78.90
6520;DHT22;3293;51.690;5.982;2023-07-29T07:51:57;25.70;74.60
6520;DHT22;3293;51.690;5.982;2023-07-29T07:56:57;24.30;85.10
6520;DHT22;3293;51.690;5.982;2023-07-29T08:01:58;23.20;90.30
6520;DHT22;3293;51.690;5.982;2023-07-29T08:06:59;22.10;95.00
6520;DHT22;3293;51.690;5.982;2023-07-29T08:12:00;22.10;96.50
6520;DHT22;3293;51.690;5.982;2023-07-29T08:17:00;22.20;96.40
6520;DHT22;3293;51.690;5.982;2023-07-29T08:22:02;21.90;97.50
6520;DHT22;3293;51.690;5.982;2023-07-29T08:27:03;21.70;98.90
6520;DHT22;3293;51.690;5.982;2023-07-29T08:32:03;21.60;99.00
6520;DHT22;3293;51.690;5.982;2023-07-29T08:37:03;22.00;98.40
6520;DHT22;3293;51.690;5.982;2023-07-29T08:42:04;22.30;96.50
6520;DHT22;3293;51.690;5.982;2023-07-29T08:47:06;22.30;95.80
6520;DHT22;3293;51.690;5.982;2023-07-29T08:52:07;22.30;95.90
6520;DHT22;3293;51.690;5.982;2023-07-29T08:57:07;22.70;93.70
6520;DHT22;3293;51.690;5.982;2023-07-29T09:02:07;23.10;92.60
6520;DHT22;3293;51.690;5.982;2023-07-29T09:07:08;23.10;92.50
6520;DHT22;3293;51.690;5.982;2023-07-29T09:12:12;23.40;92.30
6520;DHT22;3293;51.690;5.982;2023-07-29T09:17:12;24.00;87.90
6520;DHT22;3293;51.690;5.982;2023-07-29T09:22:18;24.50;82.00
6520;DHT22;3293;51.690;5.982;2023-07-29T09:27:28;26.20;64.60
6520;DHT22;3293;51.690;5.982;2023-07-29T09:32:31;26.90;53.40
6520;DHT22;3293;51.690;5.982;2023-07-29T09:37:32;26.30;60.60
6520;DHT22;3293;51.690;5.982;2023-07-29T09:42:33;26.40;57.60
6520;DHT22;3293;51.690;5.982;2023-07-29T09:47:33;27.90;49.90
6520;DHT22;3293;51.690;5.982;2023-07-29T09:52:33;27.20;50.20
6520;DHT22;3293;51.690;5.982;2023-07-29T09:57:34;26.80;55.20
6520;DHT22;3293;51.690;5.982;2023-07-29T10:02:37;26.30;56.80
6520;DHT22;3293;51.690;5.982;2023-07-29T10:07:42;26.20;58.80
6520;DHT22;3293;51.690;5.982;2023-07-29T10:12:44;26.40;59.00
6520;DHT22;3293;51.690;5.982;2023-07-29T10:17:46;26.10;62.00
6520;DHT22;3293;51.690;5.982;2023-07-29T10:22:48;25.90;62.70
6520;DHT22;3293;51.690;5.982;2023-07-29T10:28:21;25.60;70.00
6520;DHT22;3293;51.690;5.982;2023-07-29T10:33:24;24.90;66.00
6520;DHT22;3293;51.690;5.982;2023-07-29T10:38:25;24.50;69.30
6520;DHT22;3293;51.690;5.982;2023-07-29T10:43:36;24.70;72.70
6520;DHT22;3293;51.690;5.982;2023-07-29T10:48:41;25.50;65.40
6520;DHT22;3293;51.690;5.982;2023-07-29T10:53:42;25.90;61.50
6520;DHT22;3293;51.690;5.982;2023-07-29T10:58:43;25.90;57.50
6520;DHT22;3293;51.690;5.982;2023-07-29T11:04:22;25.90;60.60
6520;DHT22;3293;51.690;5.982;2023-07-29T11:14:50;25.50;65.90
6520;DHT22;3293;51.690;5.982;2023-07-29T11:19:50;25.50;61.70
6520;DHT22;3293;51.690;5.982;2023-07-29T11:24:51;26.00;63.60
6520;DHT22;3293;51.690;5.982;2023-07-29T11:29:59;26.10;59.50
6520;DHT22;3293;51.690;5.982;2023-07-29T11:35:02;26.40;59.20
6520;DHT22;3293;51.690;5.982;2023-07-29T11:40:03;26.50;58.00
6520;DHT22;3293;51.690;5.982;2023-07-29T11:45:04;26.40;54.30
6520;DHT22;3293;51.690;5.982;2023-07-29T11:50:10;26.40;56.80
6520;DHT22;3293;51.690;5.982;2023-07-29T11:55:12;25.90;61.30
6520;DHT22;3293;51.690;5.982;2023-07-29T12:00:12;25.30;58.20
6520;DHT22;3293;51.690;5.982;2023-07-29T12:05:14;24.70;66.50
6520;DHT22;3293;51.690;5.982;2023-07-29T12:10:15;24.90;71.20
6520;DHT22;3293;51.690;5.982;2023-07-29T12:15:25;25.40;73.00
6520;DHT22;3293;51.690;5.982;2023-07-29T12:20:26;26.10;65.10
6520;DHT22;3293;51.690;5.982;2023-07-29T12:25:28;26.00;58.20
6520;DHT22;3293;51.690;5.982;2023-07-29T12:30:28;25.50;55.30
6520;DHT22;3293;51.690;5.982;2023-07-29T12:35:37;24.10;58.70
6520;DHT22;3293;51.690;5.982;2023-07-29T12:40:38;23.20;63.30
6520;DHT22;3293;51.690;5.982;2023-07-29T12:45:39;22.60;73.90
6520;DHT22;3293;51.690;5.982;2023-07-29T12:50:41;21.90;80.70
6520;DHT22;3293;51.690;5.982;2023-07-29T12:55:41;21.40;93.10
6520;DHT22;3293;51.690;5.982;2023-07-29T13:00:41;20.70;99.20
6520;DHT22;3293;51.690;5.982;2023-07-29T13:05:41;20.00;99.90
6520;DHT22;3293;51.690;5.982;2023-07-29T13:10:41;19.50;99.90
6520;DHT22;3293;51.690;5.982;2023-07-29T13:15:41;19.00;99.90
6520;DHT22;3293;51.690;5.982;2023-07-29T13:20:41;19.00;99.90
6520;DHT22;3293;51.690;5.982;2023-07-29T13:25:41;19.00;99.90
6520;DHT22;3293;51.690;5.982;2023-07-29T13:30:41;19.20;99.90
6520;DHT22;3293;51.690;5.982;2023-07-29T13:35:42;19.60;99.90
6520;DHT22;3293;51.690;5.982;2023-07-29T13:40:42;20.00;99.90
6520;DHT22;3293;51.690;5.982;2023-07-29T13:45:42;20.10;99.90
6520;DHT22;3293;51.690;5.982;2023-07-29T13:50:42;20.60;99.90
6520;DHT22;3293;51.690;5.982;2023-07-29T13:55:43;20.80;99.90
6520;DHT22;3293;51.690;5.982;2023-07-29T14:01:14;21.00;99.90
6520;DHT22;3293;51.690;5.982;2023-07-29T14:06:14;21.20;99.90
6520;DHT22;3293;51.690;5.982;2023-07-29T14:11:14;21.00;99.90
6520;DHT22;3293;51.690;5.982;2023-07-29T14:16:15;21.10;99.90
6520;DHT22;3293;51.690;5.982;2023-07-29T14:21:16;21.20;99.90
6520;DHT22;3293;51.690;5.982;2023-07-29T14:26:22;21.10;99.90
6520;DHT22;3293;51.690;5.982;2023-07-29T14:31:22;21.10;99.90
6520;DHT22;3293;51.690;5.982;2023-07-29T14:36:22;21.10;99.90
6520;DHT22;3293;51.690;5.982;2023-07-29T14:41:22;21.10;99.90
6520;DHT22;3293;51.690;5.982;2023-07-29T14:46:23;21.30;99.90
6520;DHT22;3293;51.690;5.982;2023-07-29T14:51:23;21.40;99.90
6520;DHT22;3293;51.690;5.982;2023-07-29T14:56:23;21.50;99.90
6520;DHT22;3293;51.690;5.982;2023-07-29T15:01:23;21.60;99.90
6520;DHT22;3293;51.690;5.982;2023-07-29T15:06:23;21.90;99.90
6520;DHT22;3293;51.690;5.982;2023-07-29T15:11:23;21.90;99.90
6520;DHT22;3293;51.690;5.982;2023-07-29T15:16:24;22.00;99.90
6520;DHT22;3293;51.690;5.982;2023-07-29T15:21:24;22.10;99.90
6520;DHT22;3293;51.690;5.982;2023-07-29T15:26:24;22.30;99.90
6520;DHT22;3293;51.690;5.982;2023-07-29T15:31:24;22.30;99.90
6520;DHT22;3293;51.690;5.982;2023-07-29T15:36:24;22.30;99.90
6520;DHT22;3293;51.690;5.982;2023-07-29T15:41:24;22.20;99.90
6520;DHT22;3293;51.690;5.982;2023-07-29T15:46:24;22.60;99.90
6520;DHT22;3293;51.690;5.982;2023-07-29T15:51:24;23.00;99.90
6520;DHT22;3293;51.690;5.982;2023-07-29T15:56:27;23.20;99.90
6520;DHT22;3293;51.690;5.982;2023-07-29T16:01:27;23.10;99.90
6520;DHT22;3293;51.690;5.982;2023-07-29T16:06:28;22.90;99.90
6520;DHT22;3293;51.690;5.982;2023-07-29T16:11:28;22.80;99.90
6520;DHT22;3293;51.690;5.982;2023-07-29T16:16:29;22.50;99.90
6520;DHT22;3293;51.690;5.982;2023-07-29T16:21:29;22.20;99.90
6520;DHT22;3293;51.690;5.982;2023-07-29T16:26:30;22.00;99.90
6520;DHT22;3293;51.690;5.982;2023-07-29T16:31:30;21.90;99.90
6520;DHT22;3293;51.690;5.982;2023-07-29T16:36:31;21.60;99.90
6520;DHT22;3293;51.690;5.982;2023-07-29T16:41:31;21.30;99.90
6520;DHT22;3293;51.690;5.982;2023-07-29T16:46:32;20.90;99.90
6520;DHT22;3293;51.690;5.982;2023-07-29T16:51:31;20.30;99.90
6520;DHT22;3293;51.690;5.982;2023-07-29T16:56:31;20.30;99.90
6520;DHT22;3293;51.690;5.982;2023-07-29T17:01:32;20.20;99.90
6520;DHT22;3293;51.690;5.982;2023-07-29T17:06:32;20.10;99.90
6520;DHT22;3293;51.690;5.982;2023-07-29T17:11:32;20.10;99.90
6520;DHT22;3293;51.690;5.982;2023-07-29T17:16:32;20.30;99.90
6520;DHT22;3293;51.690;5.982;2023-07-29T17:21:32;20.50;99.90
6520;DHT22;3293;51.690;5.982;2023-07-29T17:26:33;20.70;99.90
6520;DHT22;3293;51.690;5.982;2023-07-29T17:31:32;20.80;99.90
6520;DHT22;3293;51.690;5.982;2023-07-29T17:36:32;20.90;99.90
6520;DHT22;3293;51.690;5.982;2023-07-29T17:41:33;20.90;99.90
6520;DHT22;3293;51.690;5.982;2023-07-29T17:46:33;20.70;99.90
6520;DHT22;3293;51.690;5.982;2023-07-29T17:51:34;20.80;99.90
6520;DHT22;3293;51.690;5.982;2023-07-29T17:56:34;20.80;99.90
6520;DHT22;3293;51.690;5.982;2023-07-29T18:01:34;20.60;99.90
6520;DHT22;3293;51.690;5.982;2023-07-29T18:06:34;20.10;99.90
6520;DHT22;3293;51.690;5.982;2023-07-29T18:11:34;20.00;99.90
6520;DHT22;3293;51.690;5.982;2023-07-29T18:16:34;20.00;99.90
6520;DHT22;3293;51.690;5.982;2023-07-29T18:21:36;19.70;99.90
6520;DHT22;3293;51.690;5.982;2023-07-29T18:26:36;19.50;99.90
6520;DHT22;3293;51.690;5.982;2023-07-29T18:31:36;19.40;99.90
6520;DHT22;3293;51.690;5.982;2023-07-29T18:36:36;19.30;99.90
6520;DHT22;3293;51.690;5.982;2023-07-29T18:41:36;19.20;99.90
6520;DHT22;3293;51.690;5.982;2023-07-29T18:46:36;19.10;99.90
6520;DHT22;3293;51.690;5.982;2023-07-29T18:51:36;19.10;99.90
6520;DHT22;3293;51.690;5.982;2023-07-29T18:56:36;19.00;99.90
6520;DHT22;3293;51.690;5.982;2023-07-29T19:01:36;18.90;99.90
6520;DHT22;3293;51.690;5.982;2023-07-29T19:06:35;18.80;99.90
6520;DHT22;3293;51.690;5.982;2023-07-29T19:11:35;18.70;99.90
6520;DHT22;3293;51.690;5.982;2023-07-29T19:16:35;18.70;99.90
6520;DHT22;3293;51.690;5.982;2023-07-29T19:21:35;18.70;99.90
6520;DHT22;3293;51.690;5.982;2023-07-29T19:26:35;18.60;99.90
6520;DHT22;3293;51.690;5.982;2023-07-29T19:31:36;18.50;99.90
6520;DHT22;3293;51.690;5.982;2023-07-29T19:36:36;18.50;99.90
6520;DHT22;3293;51.690;5.982;2023-07-29T19:41:36;18.50;99.90
6520;DHT22;3293;51.690;5.982;2023-07-29T19:46:35;18.50;99.90
6520;DHT22;3293;51.690;5.982;2023-07-29T19:51:35;18.50;99.90
6520;DHT22;3293;51.690;5.982;2023-07-29T19:56:35;18.40;99.90
6520;DHT22;3293;51.690;5.982;2023-07-29T20:01:35;18.30;99.90
6520;DHT22;3293;51.690;5.982;2023-07-29T20:06:36;18.30;99.90
6520;DHT22;3293;51.690;5.982;2023-07-29T20:11:36;18.20;99.90
6520;DHT22;3293;51.690;5.982;2023-07-29T20:16:36;18.00;99.90
6520;DHT22;3293;51.690;5.982;2023-07-29T20:21:36;17.80;99.90
6520;DHT22;3293;51.690;5.982;2023-07-29T20:26:36;17.70;99.90
6520;DHT22;3293;51.690;5.982;2023-07-29T20:31:36;17.50;99.90
6520;DHT22;3293;51.690;5.982;2023-07-29T20:36:36;17.40;99.90
6520;DHT22;3293;51.690;5.982;2023-07-29T20:41:36;17.20;99.90
6520;DHT22;3293;51.690;5.982;2023-07-29T20:46:36;17.10;99.90
6520;DHT22;3293;51.690;5.982;2023-07-29T20:51:37;16.90;99.90
6520;DHT22;3293;51.690;5.982;2023-07-29T20:56:36;16.80;99.90
6520;DHT22;3293;51.690;5.982;2023-07-29T21:01:37;16.60;99.90
6520;DHT22;3293;51.690;5.982;2023-07-29T21:06:37;16.50;99.90
6520;DHT22;3293;51.690;5.982;2023-07-29T21:11:38;16.40;99.90
6520;DHT22;3293;51.690;5.982;2023-07-29T21:16:38;16.30;99.90
6520;DHT22;3293;51.690;5.982;2023-07-29T21:21:38;16.30;99.90
6520;DHT22;3293;51.690;5.982;2023-07-29T21:26:39;16.20;99.90
6520;DHT22;3293;51.690;5.982;2023-07-29T21:31:39;16.20;99.90
6520;DHT22;3293;51.690;5.982;2023-07-29T21:36:39;16.10;99.90
6520;DHT22;3293;51.690;5.982;2023-07-29T21:41:39;16.00;99.90
6520;DHT22;3293;51.690;5.982;2023-07-29T21:46:39;16.00;99.90
6520;DHT22;3293;51.690;5.982;2023-07-29T21:51:39;15.90;99.90
6520;DHT22;3293;51.690;5.982;2023-07-29T21:56:40;15.90;99.90
6520;DHT22;3293;51.690;5.982;2023-07-29T22:01:40;15.80;99.90
6520;DHT22;3293;51.690;5.982;2023-07-29T22:06:40;15.80;99.90
6520;DHT22;3293;51.690;5.982;2023-07-29T22:11:40;15.80;99.90
6520;DHT22;3293;51.690;5.982;2023-07-29T22:16:41;15.70;99.90
6520;DHT22;3293;51.690;5.982;2023-07-29T22:21:41;15.70;99.90
6520;DHT22;3293;51.690;5.982;2023-07-29T22:26:41;15.60;99.90
6520;DHT22;3293;51.690;5.982;2023-07-29T22:31:44;15.50;99.90
6520;DHT22;3293;51.690;5.982;2023-07-29T22:36:44;15.40;99.90
6520;DHT22;3293;51.690;5.982;2023-07-29T22:41:44;15.30;99.90
6520;DHT22;3293;51.690;5.982;2023-07-29T22:46:46;15.30;99.90
6520;DHT22;3293;51.690;5.982;2023-07-29T22:51:46;15.20;99.90
6520;DHT22;3293;51.690;5.982;2023-07-29T22:56:46;15.10;99.90
6520;DHT22;3293;51.690;5.982;2023-07-29T23:01:46;15.00;99.90
6520;DHT22;3293;51.690;5.982;2023-07-29T23:06:46;15.00;99.90
6520;DHT22;3293;51.690;5.982;2023-07-29T23:11:46;14.90;99.90
6520;DHT22;3293;51.690;5.982;2023-07-29T23:16:46;14.80;99.90
6520;DHT22;3293;51.690;5.982;2023-07-29T23:21:46;14.70;99.90
6520;DHT22;3293;51.690;5.982;2023-07-29T23:26:46;14.70;99.90
6520;DHT22;3293;51.690;5.982;2023-07-29T23:31:46;14.60;99.90
6520;DHT22;3293;51.690;5.982;2023-07-29T23:36:46;14.50;99.90
6520;DHT22;3293;51.690;5.982;2023-07-29T23:41:46;14.50;99.90
6520;DHT22;3293;51.690;5.982;2023-07-29T23:46:46;14.50;99.90
6520;DHT22;3293;51.690;5.982;2023-07-29T23:51:46;14.40;99.90
6520;DHT22;3293;51.690;5.982;2023-07-29T23:56:46;14.30;99.90
